createdAt,value
2018-10-06T00:00:26.764Z,10.82
2018-10-06T00:02:55.509Z,10.79
2018-10-06T00:05:24.497Z,10.77
2018-10-06T00:07:53.592Z,10.74
2018-10-06T00:10:22.613Z,10.74
2018-10-06T00:12:52.271Z,10.70
2018-10-06T00:15:21.441Z,10.69
2018-10-06T00:17:50.800Z,10.66
2018-10-06T00:20:19.685Z,10.64
2018-10-06T00:22:48.465Z,10.64
2018-10-06T00:25:17.560Z,10.64
2018-10-06T00:27:46.394Z,10.63
2018-10-06T00:30:16.371Z,10.62
2018-10-06T00:32:46.472Z,10.60
2018-10-06T00:35:16.502Z,10.57
2018-10-06T00:37:46.678Z,10.55
2018-10-06T00:40:17.929Z,10.55
2018-10-06T00:42:48.146Z,10.56
2018-10-06T00:45:18.181Z,10.57
2018-10-06T00:47:48.312Z,10.58
2018-10-06T00:50:17.151Z,10.56
2018-10-06T00:52:46.253Z,10.55
2018-10-06T00:55:15.057Z,10.53
2018-10-06T00:57:44.142Z,10.51
2018-10-06T01:00:13.499Z,10.48
2018-10-06T01:02:42.392Z,10.48
2018-10-06T01:05:11.563Z,10.49
2018-10-06T01:07:40.698Z,10.47
2018-10-06T01:10:09.582Z,10.41
2018-10-06T01:12:38.694Z,10.41
2018-10-06T01:15:07.744Z,10.41
2018-10-06T01:17:36.559Z,10.38
2018-10-06T01:20:05.932Z,10.36
2018-10-06T01:22:34.743Z,10.35
2018-10-06T01:25:03.547Z,10.34
2018-10-06T01:27:32.626Z,10.32
2018-10-06T01:30:01.483Z,10.30
2018-10-06T01:32:30.316Z,10.26
2018-10-06T01:34:59.508Z,10.22
2018-10-06T01:37:28.351Z,10.22
2018-10-06T01:39:57.117Z,10.19
2018-10-06T01:42:26.058Z,10.18
2018-10-06T01:44:54.991Z,10.19
2018-10-06T01:47:24.509Z,10.18
2018-10-06T01:49:53.418Z,10.16
2018-10-06T01:52:23.305Z,10.13
2018-10-06T01:54:52.152Z,10.13
2018-10-06T01:57:21.010Z,10.12
2018-10-06T01:59:49.803Z,10.08
2018-10-06T02:02:18.949Z,10.06
2018-10-06T02:04:47.776Z,10.04
2018-10-06T02:07:16.765Z,10.01
2018-10-06T02:09:45.843Z,9.99
2018-10-06T02:12:14.935Z,9.98
2018-10-06T02:14:44.015Z,9.97
2018-10-06T02:17:12.776Z,9.94
2018-10-06T02:19:41.851Z,9.93
2018-10-06T02:22:10.666Z,9.91
2018-10-06T02:24:39.402Z,9.88
2018-10-06T02:27:08.214Z,9.85
2018-10-06T02:29:37.234Z,9.82
2018-10-06T02:32:06.290Z,9.80
2018-10-06T02:34:35.138Z,9.80
2018-10-06T02:37:03.941Z,9.79
2018-10-06T02:39:33.264Z,9.76
2018-10-06T02:42:02.792Z,9.75
2018-10-06T02:44:31.592Z,9.74
2018-10-06T02:47:00.403Z,9.73
2018-10-06T02:49:29.217Z,9.71
2018-10-06T02:51:58.407Z,9.67
2018-10-06T02:54:27.450Z,9.65
2018-10-06T02:56:56.596Z,9.64
2018-10-06T02:59:25.983Z,9.64
2018-10-06T03:01:55.159Z,9.62
2018-10-06T03:04:24.573Z,9.61
2018-10-06T03:06:53.373Z,9.60
2018-10-06T03:09:22.140Z,9.59
2018-10-06T03:11:51.043Z,9.57
2018-10-06T03:14:20.556Z,9.56
2018-10-06T03:16:49.352Z,9.54
2018-10-06T03:19:18.184Z,9.51
2018-10-06T03:21:47.037Z,9.48
2018-10-06T03:24:16.240Z,9.47
2018-10-06T03:26:45.217Z,9.46
2018-10-06T03:29:14.256Z,9.45
2018-10-06T03:31:43.730Z,9.42
2018-10-06T03:34:12.788Z,9.39
2018-10-06T03:36:41.990Z,9.36
2018-10-06T03:39:10.772Z,9.34
2018-10-06T03:41:40.225Z,9.32
2018-10-06T03:44:09.040Z,9.31
2018-10-06T03:46:38.208Z,9.29
2018-10-06T03:49:07.599Z,9.29
2018-10-06T03:51:37.136Z,9.29
2018-10-06T03:54:06.431Z,9.28
2018-10-06T03:56:35.527Z,9.29
2018-10-06T03:59:04.391Z,9.28
2018-10-06T04:01:33.155Z,9.26
2018-10-06T04:04:02.583Z,9.25
2018-10-06T04:06:31.415Z,9.24
2018-10-06T04:09:00.782Z,9.22
2018-10-06T04:11:30.858Z,9.22
2018-10-06T04:13:59.880Z,9.22
2018-10-06T04:16:28.675Z,9.21
2018-10-06T04:18:57.856Z,9.19
2018-10-06T04:21:30.001Z,9.20
2018-10-06T04:23:59.026Z,9.22
2018-10-06T04:26:27.817Z,9.23
2018-10-06T04:28:56.584Z,9.25
2018-10-06T04:31:25.350Z,9.26
2018-10-06T04:33:54.173Z,9.25
2018-10-06T04:36:23.026Z,9.23
2018-10-06T04:38:52.048Z,9.22
2018-10-06T04:41:20.883Z,9.22
2018-10-06T04:43:49.670Z,9.21
2018-10-06T04:46:18.482Z,9.22
2018-10-06T04:48:47.828Z,9.22
2018-10-06T04:51:16.639Z,9.21
2018-10-06T04:53:45.647Z,9.19
2018-10-06T04:56:14.701Z,9.15
2018-10-06T04:58:43.855Z,9.11
2018-10-06T05:01:12.601Z,9.04
2018-10-06T05:03:41.756Z,8.97
2018-10-06T05:06:11.244Z,8.96
2018-10-06T05:08:39.983Z,8.94
2018-10-06T05:11:08.866Z,8.94
2018-10-06T05:13:37.827Z,8.93
2018-10-06T05:16:06.854Z,8.92
2018-10-06T05:18:35.909Z,8.90
2018-10-06T05:21:06.160Z,8.89
2018-10-06T05:23:35.311Z,8.87
2018-10-06T05:26:04.054Z,8.87
2018-10-06T05:28:33.073Z,8.88
2018-10-06T05:31:02.038Z,8.89
2018-10-06T05:33:31.318Z,8.93
2018-10-06T05:36:00.231Z,8.94
2018-10-06T05:38:29.231Z,8.95
2018-10-06T05:40:58.158Z,8.92
2018-10-06T05:43:27.075Z,8.93
2018-10-06T05:45:55.931Z,8.93
2018-10-06T05:48:25.413Z,8.95
2018-10-06T05:50:54.266Z,8.94
2018-10-06T05:53:23.414Z,8.94
2018-10-06T05:55:52.399Z,8.92
2018-10-06T05:58:21.216Z,8.89
2018-10-06T06:00:50.285Z,8.89
2018-10-06T06:03:19.486Z,8.93
2018-10-06T06:05:48.272Z,8.95
2018-10-06T06:08:17.169Z,8.96
2018-10-06T06:10:46.026Z,9.00
2018-10-06T06:13:15.649Z,9.05
2018-10-06T06:15:44.852Z,9.07
2018-10-06T06:18:13.594Z,9.09
2018-10-06T06:20:42.589Z,9.12
2018-10-06T06:23:11.473Z,9.16
2018-10-06T06:25:40.335Z,9.21
2018-10-06T06:28:09.432Z,9.25
2018-10-06T06:30:38.312Z,9.31
2018-10-06T06:33:07.317Z,9.36
2018-10-06T06:35:36.990Z,9.40
2018-10-06T06:38:06.185Z,9.45
2018-10-06T06:40:35.564Z,9.50
2018-10-06T06:43:04.564Z,9.54
2018-10-06T06:45:33.398Z,9.62
2018-10-06T06:48:02.184Z,9.66
2018-10-06T06:50:31.273Z,9.73
2018-10-06T06:53:00.077Z,9.79
2018-10-06T06:55:28.874Z,9.86
2018-10-06T06:57:58.298Z,9.92
2018-10-06T07:00:27.126Z,10.00
2018-10-06T07:02:55.905Z,10.09
2018-10-06T07:05:25.638Z,10.18
2018-10-06T07:07:56.009Z,10.23
2018-10-06T07:10:25.620Z,10.31
2018-10-06T07:12:54.611Z,10.38
2018-10-06T07:15:23.682Z,10.47
2018-10-06T07:17:52.562Z,10.54
2018-10-06T07:20:21.440Z,10.60
2018-10-06T07:22:50.606Z,10.67
2018-10-06T07:25:20.543Z,10.75
2018-10-06T07:27:49.512Z,10.83
2018-10-06T07:30:18.705Z,10.89
2018-10-06T07:32:48.469Z,10.95
2018-10-06T07:35:17.617Z,11.04
2018-10-06T07:37:46.821Z,11.11
2018-10-06T07:40:15.707Z,11.20
2018-10-06T07:42:44.502Z,11.26
2018-10-06T07:45:13.864Z,11.33
2018-10-06T07:47:43.446Z,11.41
2018-10-06T07:50:13.128Z,11.50
2018-10-06T07:52:42.002Z,11.57
2018-10-06T07:55:12.510Z,11.65
2018-10-06T07:57:42.059Z,11.75
2018-10-06T08:00:10.965Z,11.84
2018-10-06T08:02:40.942Z,11.95
2018-10-06T08:05:10.117Z,12.07
2018-10-06T08:07:39.975Z,12.19
2018-10-06T08:10:10.034Z,12.30
2018-10-06T08:12:39.249Z,12.40
2018-10-06T08:15:08.180Z,12.52
2018-10-06T08:17:38.129Z,12.64
2018-10-06T08:20:06.885Z,12.76
2018-10-06T08:22:35.948Z,12.86
2018-10-06T08:25:05.656Z,12.98
2018-10-06T08:27:34.518Z,13.12
2018-10-06T08:30:03.381Z,13.23
2018-10-06T08:32:35.907Z,13.34
2018-10-06T08:35:04.783Z,13.48
2018-10-06T08:37:33.904Z,13.62
2018-10-06T08:40:03.098Z,13.74
2018-10-06T08:42:32.188Z,13.86
2018-10-06T08:45:01.019Z,13.99
2018-10-06T08:47:30.002Z,14.11
2018-10-06T08:49:58.824Z,14.21
2018-10-06T08:52:28.030Z,14.32
2018-10-06T08:54:56.836Z,14.40
2018-10-06T08:57:25.684Z,14.47
2018-10-06T08:59:55.060Z,14.57
2018-10-06T09:02:24.120Z,14.66
2018-10-06T09:04:53.031Z,14.77
2018-10-06T09:07:21.875Z,14.91
2018-10-06T09:09:50.764Z,15.02
2018-10-06T09:12:19.900Z,15.13
2018-10-06T09:14:49.330Z,15.21
2018-10-06T09:17:18.522Z,15.31
2018-10-06T09:19:47.339Z,15.45
2018-10-06T09:22:16.229Z,15.59
2018-10-06T09:24:45.404Z,15.70
2018-10-06T09:27:14.235Z,15.82
2018-10-06T09:29:43.380Z,15.95
2018-10-06T09:32:12.276Z,16.07
2018-10-06T09:34:41.117Z,16.19
2018-10-06T09:37:10.714Z,16.34
2018-10-06T09:39:39.597Z,16.47
2018-10-06T09:42:09.120Z,16.58
2018-10-06T09:44:38.227Z,16.71
2018-10-06T09:47:07.158Z,16.82
2018-10-06T09:49:35.920Z,16.93
2018-10-06T09:52:04.766Z,17.06
2018-10-06T09:54:33.947Z,17.20
2018-10-06T09:57:02.722Z,17.37
2018-10-06T09:59:32.022Z,17.55
2018-10-06T10:03:07.928Z,17.75
2018-10-06T10:05:41.977Z,18.04
2018-10-06T10:08:11.427Z,18.21
2018-10-06T10:10:40.638Z,18.39
2018-10-06T10:13:09.787Z,18.58
2018-10-06T10:15:38.623Z,18.82
2018-10-06T10:18:07.509Z,19.07
2018-10-06T10:20:36.606Z,19.27
2018-10-06T10:23:05.478Z,19.50
2018-10-06T10:25:34.139Z,19.77
2018-10-06T10:28:03.522Z,20.05
2018-10-06T10:30:32.682Z,20.33
2018-10-06T10:33:01.473Z,20.57
2018-10-06T10:35:30.250Z,20.79
2018-10-06T10:37:59.020Z,20.97
2018-10-06T10:40:28.102Z,21.26
2018-10-06T10:42:57.617Z,21.50
2018-10-06T10:45:26.379Z,21.75
2018-10-06T10:47:55.518Z,21.94
2018-10-06T10:50:24.577Z,22.12
2018-10-06T10:52:53.785Z,22.27
2018-10-06T10:55:22.885Z,22.42
2018-10-06T10:57:52.058Z,22.73
2018-10-06T11:00:21.087Z,22.98
2018-10-06T11:02:49.881Z,23.18
2018-10-06T11:05:18.955Z,23.45
2018-10-06T11:07:48.028Z,23.66
2018-10-06T11:10:17.207Z,23.83
2018-10-06T11:12:45.967Z,24.08
2018-10-06T11:15:14.761Z,24.34
2018-10-06T11:17:43.665Z,24.60
2018-10-06T11:20:12.655Z,24.82
2018-10-06T11:22:41.445Z,24.93
2018-10-06T11:25:10.548Z,25.10
2018-10-06T11:27:39.600Z,25.25
2018-10-06T11:30:08.805Z,25.35
2018-10-06T11:32:37.660Z,25.39
2018-10-06T11:35:06.720Z,25.45
2018-10-06T11:37:36.108Z,25.51
2018-10-06T11:40:05.221Z,25.61
2018-10-06T11:42:34.059Z,25.72
2018-10-06T11:45:03.111Z,25.76
2018-10-06T11:47:31.955Z,25.84
2018-10-06T11:50:01.229Z,25.90
2018-10-06T11:52:29.923Z,26.10
2018-10-06T11:54:58.795Z,26.38
2018-10-06T11:57:28.303Z,26.51
2018-10-06T11:59:57.362Z,26.54
2018-10-06T12:02:26.197Z,26.66
2018-10-06T12:04:55.400Z,26.67
2018-10-06T12:07:24.418Z,26.61
2018-10-06T12:09:53.520Z,26.60
2018-10-06T12:12:22.742Z,26.67
2018-10-06T12:14:51.976Z,26.76
2018-10-06T12:17:20.820Z,26.86
2018-10-06T12:19:49.947Z,26.87
2018-10-06T12:22:18.757Z,26.94
2018-10-06T12:24:47.940Z,26.96
2018-10-06T12:27:17.108Z,26.78
2018-10-06T12:29:46.091Z,26.86
2018-10-06T12:32:15.221Z,26.89
2018-10-06T12:34:44.279Z,26.96
2018-10-06T12:37:13.127Z,26.89
2018-10-06T12:39:41.959Z,26.91
2018-10-06T12:42:11.381Z,27.00
2018-10-06T12:44:40.164Z,27.06
2018-10-06T12:47:09.039Z,27.06
2018-10-06T12:49:37.843Z,27.01
2018-10-06T12:52:07.094Z,27.04
2018-10-06T12:54:36.255Z,27.03
2018-10-06T12:57:05.268Z,27.07
2018-10-06T12:59:34.022Z,27.10
2018-10-06T13:02:03.134Z,27.11
2018-10-06T13:04:31.879Z,27.02
2018-10-06T13:07:00.700Z,26.95
2018-10-06T13:09:32.484Z,26.94
2018-10-06T13:12:01.291Z,26.83
2018-10-06T13:14:30.058Z,26.78
2018-10-06T13:16:58.883Z,26.81
2018-10-06T13:19:28.453Z,26.83
2018-10-06T13:21:57.455Z,26.91
2018-10-06T13:24:26.249Z,26.81
2018-10-06T13:26:55.403Z,26.75
2018-10-06T13:29:24.617Z,26.78
2018-10-06T13:31:53.454Z,26.68
2018-10-06T13:34:22.237Z,26.44
2018-10-06T13:36:51.425Z,26.33
2018-10-06T13:39:20.146Z,26.30
2018-10-06T13:41:49.258Z,26.36
2018-10-06T13:44:18.332Z,26.49
2018-10-06T13:46:47.153Z,26.55
2018-10-06T13:49:16.309Z,26.58
2018-10-06T13:51:45.426Z,26.69
2018-10-06T13:54:14.326Z,26.60
2018-10-06T13:56:43.654Z,26.55
2018-10-06T13:59:12.407Z,26.36
2018-10-06T14:01:41.530Z,26.28
2018-10-06T14:04:10.250Z,26.30
2018-10-06T14:06:39.156Z,26.36
2018-10-06T14:09:08.894Z,26.32
2018-10-06T14:11:38.061Z,26.19
2018-10-06T14:14:06.970Z,26.01
2018-10-06T14:16:36.137Z,26.02
2018-10-06T14:19:05.293Z,26.16
2018-10-06T14:21:34.127Z,26.12
2018-10-06T14:24:03.153Z,26.02
2018-10-06T14:26:32.075Z,26.04
2018-10-06T14:29:01.423Z,26.01
2018-10-06T14:31:30.233Z,25.81
2018-10-06T14:34:05.702Z,25.66
2018-10-06T14:36:34.685Z,25.61
2018-10-06T14:39:04.166Z,25.48
2018-10-06T14:41:33.057Z,25.37
2018-10-06T14:44:01.853Z,25.39
2018-10-06T14:46:30.846Z,25.32
2018-10-06T14:49:00.079Z,25.27
2018-10-06T14:51:29.119Z,25.24
2018-10-06T14:53:57.883Z,25.11
2018-10-06T14:56:26.899Z,24.99
2018-10-06T14:58:56.552Z,24.91
2018-10-06T15:01:25.653Z,24.67
2018-10-06T15:03:54.454Z,24.49
2018-10-06T15:06:23.228Z,24.39
2018-10-06T15:08:52.045Z,24.26
2018-10-06T15:11:20.850Z,24.14
2018-10-06T15:13:49.613Z,23.87
2018-10-06T15:16:18.743Z,23.65
2018-10-06T15:18:47.875Z,23.48
2018-10-06T15:21:17.494Z,23.33
2018-10-06T15:23:46.363Z,23.19
2018-10-06T15:26:15.499Z,23.12
2018-10-06T15:28:44.612Z,23.04
2018-10-06T15:31:13.724Z,22.94
2018-10-06T15:33:42.600Z,22.85
2018-10-06T15:36:11.451Z,22.82
2018-10-06T15:38:41.023Z,22.83
2018-10-06T15:41:10.736Z,22.80
2018-10-06T15:43:40.487Z,22.81
2018-10-06T15:46:10.827Z,22.77
2018-10-06T15:48:39.702Z,22.73
2018-10-06T15:51:09.498Z,22.66
2018-10-06T15:53:38.338Z,22.58
2018-10-06T15:56:07.139Z,22.49
2018-10-06T15:58:38.360Z,22.42
2018-10-06T16:01:07.879Z,22.40
2018-10-06T16:03:36.911Z,22.33
2018-10-06T16:06:05.694Z,22.21
2018-10-06T16:08:34.544Z,22.05
2018-10-06T16:11:03.347Z,21.93
2018-10-06T16:13:32.087Z,21.83
2018-10-06T16:16:00.910Z,21.73
2018-10-06T16:18:29.683Z,21.63
2018-10-06T16:20:58.681Z,21.50
2018-10-06T16:23:27.825Z,21.37
2018-10-06T16:25:56.656Z,21.26
2018-10-06T16:28:25.431Z,21.15
2018-10-06T16:30:54.556Z,21.08
2018-10-06T16:33:23.649Z,20.93
2018-10-06T16:35:52.723Z,20.76
2018-10-06T16:38:22.966Z,20.60
2018-10-06T16:40:51.767Z,20.34
2018-10-06T16:43:20.547Z,20.24
2018-10-06T16:45:49.890Z,20.16
2018-10-06T16:48:19.381Z,20.12
2018-10-06T16:50:48.541Z,20.11
2018-10-06T16:53:17.674Z,20.04
2018-10-06T16:55:46.491Z,20.00
2018-10-06T16:58:15.261Z,19.93
2018-10-06T17:00:50.454Z,19.84
2018-10-06T17:03:19.676Z,19.80
2018-10-06T17:05:48.532Z,19.75
2018-10-06T17:08:17.339Z,19.70
2018-10-06T17:10:46.190Z,19.63
2018-10-06T17:13:15.009Z,19.55
2018-10-06T17:15:44.065Z,19.47
2018-10-06T17:18:12.859Z,19.39
2018-10-06T17:20:41.703Z,19.29
2018-10-06T17:23:10.830Z,19.23
2018-10-06T17:25:39.622Z,19.11
2018-10-06T17:28:08.846Z,19.06
2018-10-06T17:30:38.522Z,19.01
2018-10-06T17:33:07.879Z,18.93
2018-10-06T17:35:37.075Z,18.87
2018-10-06T17:38:05.980Z,18.83
2018-10-06T17:40:35.023Z,18.78
2018-10-06T17:43:03.898Z,18.69
2018-10-06T17:45:33.120Z,18.63
2018-10-06T17:48:02.126Z,18.54
2018-10-06T17:50:31.823Z,18.47
2018-10-06T17:53:01.099Z,18.43
2018-10-06T17:55:30.271Z,18.36
2018-10-06T17:57:59.872Z,18.27
2018-10-06T18:00:28.737Z,18.19
2018-10-06T18:02:58.202Z,18.10
2018-10-06T18:05:27.198Z,18.03
2018-10-06T18:07:56.583Z,17.99
2018-10-06T18:10:25.369Z,17.95
2018-10-06T18:12:54.148Z,17.88
2018-10-06T18:15:24.871Z,17.88
2018-10-06T18:17:53.843Z,17.80
2018-10-06T18:20:22.726Z,17.76
2018-10-06T18:22:52.881Z,17.70
2018-10-06T18:25:22.127Z,17.63
2018-10-06T18:27:51.048Z,17.60
2018-10-06T18:30:20.740Z,17.56
2018-10-06T18:32:50.035Z,17.47
2018-10-06T18:35:20.083Z,17.41
2018-10-06T18:37:49.013Z,17.34
2018-10-06T18:40:18.274Z,17.28
2018-10-06T18:42:47.273Z,17.24
2018-10-06T18:45:16.467Z,17.19
2018-10-06T18:47:46.136Z,17.04
2018-10-06T18:50:15.031Z,17.02
2018-10-06T18:52:45.313Z,16.95
2018-10-06T18:55:14.509Z,16.88
2018-10-06T18:57:44.434Z,16.85
2018-10-06T19:00:13.344Z,16.81
2018-10-06T19:02:42.277Z,16.71
2018-10-06T19:05:11.855Z,16.61
2018-10-06T19:07:41.800Z,16.42
2018-10-06T19:10:11.826Z,16.35
2018-10-06T19:12:40.960Z,16.30
2018-10-06T19:15:10.198Z,16.21
2018-10-06T19:17:39.371Z,16.20
2018-10-06T19:20:08.238Z,16.14
2018-10-06T19:22:37.215Z,16.09
2018-10-06T19:25:06.567Z,16.04
2018-10-06T19:27:35.476Z,16.01
2018-10-06T19:30:04.399Z,15.99
2018-10-06T19:32:33.222Z,15.95
2018-10-06T19:35:02.420Z,15.94
2018-10-06T19:37:31.453Z,15.89
2018-10-06T19:40:00.302Z,15.90
2018-10-06T19:42:29.067Z,15.87
2018-10-06T19:44:58.231Z,15.83
2018-10-06T19:47:27.065Z,15.85
2018-10-06T19:49:56.510Z,15.83
2018-10-06T19:52:25.313Z,15.77
2018-10-06T19:54:56.203Z,15.74
2018-10-06T19:57:26.014Z,15.72
2018-10-06T19:59:55.283Z,15.73
2018-10-06T20:02:24.978Z,15.73
2018-10-06T20:04:53.818Z,15.71
2018-10-06T20:07:22.982Z,15.66
2018-10-06T20:09:52.472Z,15.61
2018-10-06T20:12:23.231Z,15.57
2018-10-06T20:14:53.295Z,15.57
2018-10-06T20:17:23.274Z,15.54
2018-10-06T20:19:52.241Z,15.48
2018-10-06T20:22:22.212Z,15.48
2018-10-06T20:24:51.076Z,15.46
2018-10-06T20:27:20.129Z,15.45
2018-10-06T20:29:49.322Z,15.42
2018-10-06T20:32:18.491Z,15.39
2018-10-06T20:34:47.509Z,15.37
2018-10-06T20:37:16.659Z,15.33
2018-10-06T20:39:46.096Z,15.34
2018-10-06T20:42:16.088Z,15.34
2018-10-06T20:44:45.012Z,15.31
2018-10-06T20:47:13.791Z,15.26
2018-10-06T20:49:42.577Z,15.25
2018-10-06T20:52:11.390Z,15.21
2018-10-06T20:54:40.569Z,15.22
2018-10-06T20:57:09.456Z,15.22
2018-10-06T20:59:38.532Z,15.18
2018-10-06T21:02:07.766Z,15.17
2018-10-06T21:04:36.765Z,15.13
2018-10-06T21:07:06.023Z,15.03
2018-10-06T21:09:35.420Z,14.98
2018-10-06T21:12:04.390Z,14.94
2018-10-06T21:14:33.729Z,14.92
2018-10-06T21:17:02.914Z,14.90
2018-10-06T21:19:32.030Z,14.91
2018-10-06T21:22:01.656Z,14.89
2018-10-06T21:24:30.575Z,14.85
2018-10-06T21:27:00.917Z,14.83
2018-10-06T21:29:30.176Z,14.83
2018-10-06T21:31:59.112Z,14.84
2018-10-06T21:34:28.795Z,14.84
2018-10-06T21:36:57.988Z,14.80
2018-10-06T21:39:27.094Z,14.70
2018-10-06T21:41:55.863Z,14.75
2018-10-06T21:44:24.702Z,14.76
2018-10-06T21:46:53.591Z,14.78
2018-10-06T21:49:22.758Z,14.76
2018-10-06T21:51:52.661Z,14.77
2018-10-06T21:54:22.848Z,14.77
2018-10-06T21:56:52.423Z,14.76
2018-10-06T21:59:21.277Z,14.78
2018-10-06T22:01:50.122Z,14.80
2018-10-06T22:04:19.236Z,14.75
2018-10-06T22:06:48.297Z,14.75
2018-10-06T22:09:18.451Z,14.76
2018-10-06T22:11:47.523Z,14.73
2018-10-06T22:14:16.877Z,14.67
2018-10-06T22:16:45.872Z,14.59
2018-10-06T22:19:14.777Z,14.57
2018-10-06T22:21:43.569Z,14.55
2018-10-06T22:24:12.639Z,14.52
2018-10-06T22:26:41.870Z,14.48
2018-10-06T22:29:10.755Z,14.44
2018-10-06T22:31:40.242Z,14.42
2018-10-06T22:34:09.318Z,14.31
2018-10-06T22:36:38.673Z,14.23
2018-10-06T22:39:08.819Z,14.19
2018-10-06T22:41:37.993Z,14.13
2018-10-06T22:44:07.208Z,14.17
2018-10-06T22:46:36.110Z,14.08
2018-10-06T22:49:05.167Z,14.00
2018-10-06T22:51:34.312Z,13.95
2018-10-06T22:54:03.097Z,13.90
2018-10-06T22:56:31.950Z,13.85
2018-10-06T22:59:00.770Z,13.78
2018-10-06T23:01:31.316Z,13.69
2018-10-06T23:04:00.188Z,13.60
2018-10-06T23:06:29.104Z,13.50
2018-10-06T23:08:58.161Z,13.46
2018-10-06T23:11:26.970Z,13.47
2018-10-06T23:13:55.853Z,13.38
2018-10-06T23:16:24.712Z,13.31
2018-10-06T23:18:53.502Z,13.27
2018-10-06T23:21:22.654Z,13.22
2018-10-06T23:23:51.531Z,13.14
2018-10-06T23:26:20.629Z,13.13
2018-10-06T23:28:49.743Z,13.10
2018-10-06T23:31:18.766Z,13.04
2018-10-06T23:33:47.624Z,12.98
2018-10-06T23:36:16.416Z,13.00
2018-10-06T23:38:45.199Z,12.93
2018-10-06T23:41:14.276Z,12.89
2018-10-06T23:43:43.457Z,12.89
2018-10-06T23:46:12.444Z,12.78
2018-10-06T23:48:41.332Z,12.75
2018-10-06T23:51:10.226Z,12.62
2018-10-06T23:53:39.552Z,12.60
2018-10-06T23:56:09.006Z,12.59
2018-10-06T23:58:38.081Z,12.49
